sensor_id;sensor_type;location;lat;lon;timestamp;pressure;altitude;pressure_sealevel;temperature;humidity
43824;BME280;29470;53.550;9.926;2023-06-22T00:03:12;101563.31;;;21.65;67.12
43824;BME280;29470;53.550;9.926;2023-06-22T00:08:17;101554.81;;;21.49;68.55
43824;BME280;29470;53.550;9.926;2023-06-22T00:13:21;101558.78;;;21.38;69.47
43824;BME280;29470;53.550;9.926;2023-06-22T00:18:24;101541.53;;;21.69;67.67
43824;BME280;29470;53.550;9.926;2023-06-22T00:23:31;101557.09;;;21.62;68.20
43824;BME280;29470;53.550;9.926;2023-06-22T00:28:36;101557.63;;;21.54;69.03
43824;BME280;29470;53.550;9.926;2023-06-22T00:33:38;101562.38;;;21.62;69.05
43824;BME280;29470;53.550;9.926;2023-06-22T00:38:43;101567.66;;;21.87;67.82
43824;BME280;29470;53.550;9.926;2023-06-22T00:43:46;101564.72;;;21.79;68.16
43824;BME280;29470;53.550;9.926;2023-06-22T00:48:50;101568.19;;;22.02;67.51
43824;BME280;29470;53.550;9.926;2023-06-22T00:53:56;101562.13;;;22.05;66.07
43824;BME280;29470;53.550;9.926;2023-06-22T00:59:00;101565.31;;;21.70;67.85
43824;BME280;29470;53.550;9.926;2023-06-22T01:04:05;101572.31;;;21.94;67.53
43824;BME280;29470;53.550;9.926;2023-06-22T01:09:15;101575.25;;;21.79;68.06
43824;BME280;29470;53.550;9.926;2023-06-22T01:14:21;101567.81;;;21.91;67.13
43824;BME280;29470;53.550;9.926;2023-06-22T01:19:35;101567.91;;;21.95;66.97
43824;BME280;29470;53.550;9.926;2023-06-22T01:24:51;101566.84;;;21.89;67.02
43824;BME280;29470;53.550;9.926;2023-06-22T01:29:59;101557.50;;;21.98;65.96
43824;BME280;29470;53.550;9.926;2023-06-22T01:35:04;101560.81;;;21.92;66.67
43824;BME280;29470;53.550;9.926;2023-06-22T01:40:09;101549.66;;;21.75;67.80
43824;BME280;29470;53.550;9.926;2023-06-22T01:45:14;101560.03;;;21.70;67.40
43824;BME280;29470;53.550;9.926;2023-06-22T01:50:18;101562.16;;;21.81;67.49
43824;BME280;29470;53.550;9.926;2023-06-22T01:55:20;101568.59;;;21.42;69.00
43824;BME280;29470;53.550;9.926;2023-06-22T02:00:25;101567.63;;;21.62;68.76
43824;BME280;29470;53.550;9.926;2023-06-22T02:05:37;101570.84;;;21.55;69.04
43824;BME280;29470;53.550;9.926;2023-06-22T02:10:45;101571.28;;;21.43;69.77
43824;BME280;29470;53.550;9.926;2023-06-22T02:15:50;101562.09;;;21.56;68.90
43824;BME280;29470;53.550;9.926;2023-06-22T02:20:53;101554.78;;;21.70;68.41
43824;BME280;29470;53.550;9.926;2023-06-22T02:25:57;101555.06;;;21.32;70.25
43824;BME280;29470;53.550;9.926;2023-06-22T02:31:01;101550.97;;;21.16;70.90
43824;BME280;29470;53.550;9.926;2023-06-22T02:36:04;101544.97;;;21.19;71.04
43824;BME280;29470;53.550;9.926;2023-06-22T02:41:10;101546.44;;;20.89;72.23
43824;BME280;29470;53.550;9.926;2023-06-22T02:46:16;101546.47;;;20.70;74.05
43824;BME280;29470;53.550;9.926;2023-06-22T02:51:19;101547.16;;;20.64;74.33
43824;BME280;29470;53.550;9.926;2023-06-22T02:56:22;101546.31;;;20.65;74.42
43824;BME280;29470;53.550;9.926;2023-06-22T03:01:31;101547.41;;;20.49;74.70
43824;BME280;29470;53.550;9.926;2023-06-22T03:06:40;101549.06;;;20.47;75.35
43824;BME280;29470;53.550;9.926;2023-06-22T03:11:43;101548.44;;;20.53;74.79
43824;BME280;29470;53.550;9.926;2023-06-22T03:16:47;101556.13;;;20.48;75.20
43824;BME280;29470;53.550;9.926;2023-06-22T03:21:50;101557.84;;;20.69;75.05
43824;BME280;29470;53.550;9.926;2023-06-22T03:26:53;101561.69;;;20.56;75.19
43824;BME280;29470;53.550;9.926;2023-06-22T03:31:57;101563.75;;;20.63;74.33
43824;BME280;29470;53.550;9.926;2023-06-22T03:37:01;101574.66;;;20.72;73.87
43824;BME280;29470;53.550;9.926;2023-06-22T03:42:05;101571.72;;;20.86;74.19
43824;BME280;29470;53.550;9.926;2023-06-22T03:47:10;101577.00;;;21.09;72.37
43824;BME280;29470;53.550;9.926;2023-06-22T03:52:13;101580.16;;;21.23;71.89
43824;BME280;29470;53.550;9.926;2023-06-22T03:57:16;101584.38;;;21.42;70.30
43824;BME280;29470;53.550;9.926;2023-06-22T04:02:20;101581.75;;;21.42;70.14
43824;BME280;29470;53.550;9.926;2023-06-22T04:07:23;101592.47;;;21.69;70.00
43824;BME280;29470;53.550;9.926;2023-06-22T04:12:26;101590.59;;;21.67;70.13
43824;BME280;29470;53.550;9.926;2023-06-22T04:17:33;101601.09;;;21.89;68.76
43824;BME280;29470;53.550;9.926;2023-06-22T04:22:36;101601.09;;;21.89;68.19
43824;BME280;29470;53.550;9.926;2023-06-22T04:27:41;101611.06;;;21.74;68.31
43824;BME280;29470;53.550;9.926;2023-06-22T04:32:45;101608.50;;;22.26;66.80
43824;BME280;29470;53.550;9.926;2023-06-22T04:37:58;101602.25;;;22.48;64.71
43824;BME280;29470;53.550;9.926;2023-06-22T04:43:01;101605.22;;;22.57;64.58
43824;BME280;29470;53.550;9.926;2023-06-22T04:48:07;101604.94;;;22.24;65.63
43824;BME280;29470;53.550;9.926;2023-06-22T04:53:11;101611.59;;;22.91;63.01
43824;BME280;29470;53.550;9.926;2023-06-22T04:58:14;101606.94;;;23.12;61.97
43824;BME280;29470;53.550;9.926;2023-06-22T05:03:34;101603.88;;;22.98;62.18
43824;BME280;29470;53.550;9.926;2023-06-22T05:08:39;101604.56;;;23.19;61.07
43824;BME280;29470;53.550;9.926;2023-06-22T05:13:44;101607.88;;;23.14;61.37
43824;BME280;29470;53.550;9.926;2023-06-22T05:18:52;101614.69;;;23.63;60.43
43824;BME280;29470;53.550;9.926;2023-06-22T05:23:55;101599.47;;;23.85;58.17
43824;BME280;29470;53.550;9.926;2023-06-22T05:29:02;101607.19;;;24.08;57.17
43824;BME280;29470;53.550;9.926;2023-06-22T05:34:07;101604.81;;;23.27;57.59
43824;BME280;29470;53.550;9.926;2023-06-22T05:39:14;101617.19;;;23.89;55.07
43824;BME280;29470;53.550;9.926;2023-06-22T05:49:56;101606.81;;;23.97;54.08
43824;BME280;29470;53.550;9.926;2023-06-22T05:55:02;101610.09;;;24.52;52.06
43824;BME280;29470;53.550;9.926;2023-06-22T06:00:06;101594.91;;;24.79;50.78
43824;BME280;29470;53.550;9.926;2023-06-22T06:05:13;101593.72;;;25.04;49.26
43824;BME280;29470;53.550;9.926;2023-06-22T06:10:16;101595.19;;;25.31;48.16
43824;BME280;29470;53.550;9.926;2023-06-22T06:15:19;101594.28;;;26.15;47.18
43824;BME280;29470;53.550;9.926;2023-06-22T06:20:25;101593.31;;;27.19;45.40
43824;BME280;29470;53.550;9.926;2023-06-22T06:25:30;101588.91;;;27.89;43.02
43824;BME280;29470;53.550;9.926;2023-06-22T06:30:33;101591.03;;;26.84;44.54
43824;BME280;29470;53.550;9.926;2023-06-22T06:35:37;101586.34;;;26.67;44.85
43824;BME280;29470;53.550;9.926;2023-06-22T06:40:40;101583.63;;;26.64;45.56
43824;BME280;29470;53.550;9.926;2023-06-22T06:45:46;101588.72;;;27.07;44.95
43824;BME280;29470;53.550;9.926;2023-06-22T06:50:54;101587.81;;;26.00;46.18
43824;BME280;29470;53.550;9.926;2023-06-22T06:55:59;101577.97;;;26.41;45.61
43824;BME280;29470;53.550;9.926;2023-06-22T07:01:02;101578.38;;;26.15;46.22
43824;BME280;29470;53.550;9.926;2023-06-22T07:06:07;101582.44;;;25.51;47.88
43824;BME280;29470;53.550;9.926;2023-06-22T07:11:12;101577.78;;;26.31;46.08
43824;BME280;29470;53.550;9.926;2023-06-22T07:16:15;101574.97;;;26.76;45.49
43824;BME280;29470;53.550;9.926;2023-06-22T07:21:20;101575.25;;;27.59;42.82
43824;BME280;29470;53.550;9.926;2023-06-22T07:26:22;101575.47;;;28.74;42.08
43824;BME280;29470;53.550;9.926;2023-06-22T07:31:26;101571.25;;;29.01;40.76
43824;BME280;29470;53.550;9.926;2023-06-22T07:49:19;101573.91;;;31.97;35.49
43824;BME280;29470;53.550;9.926;2023-06-22T07:54:22;101575.22;;;29.99;38.76
43824;BME280;29470;53.550;9.926;2023-06-22T07:59:31;101580.75;;;28.67;41.77
43824;BME280;29470;53.550;9.926;2023-06-22T08:04:35;101593.50;;;29.12;40.73
43824;BME280;29470;53.550;9.926;2023-06-22T08:09:39;101587.44;;;29.38;40.44
43824;BME280;29470;53.550;9.926;2023-06-22T08:14:48;101579.56;;;29.74;39.84
43824;BME280;29470;53.550;9.926;2023-06-22T08:19:53;101581.19;;;29.36;39.94
43824;BME280;29470;53.550;9.926;2023-06-22T08:24:56;101573.16;;;31.78;36.38
43824;BME280;29470;53.550;9.926;2023-06-22T08:29:59;101565.78;;;33.77;33.51
43824;BME280;29470;53.550;9.926;2023-06-22T08:35:04;101553.69;;;34.11;30.92
43824;BME280;29470;53.550;9.926;2023-06-22T08:40:10;101568.75;;;32.79;33.73
43824;BME280;29470;53.550;9.926;2023-06-22T08:45:14;101569.75;;;31.39;35.30
43824;BME280;29470;53.550;9.926;2023-06-22T08:50:18;101560.91;;;29.72;38.23
43824;BME280;29470;53.550;9.926;2023-06-22T08:55:21;101550.25;;;29.80;38.19
43824;BME280;29470;53.550;9.926;2023-06-22T09:00:24;101540.50;;;29.85;38.34
43824;BME280;29470;53.550;9.926;2023-06-22T09:05:29;101538.72;;;29.82;38.07
43824;BME280;29470;53.550;9.926;2023-06-22T09:10:32;101531.59;;;29.80;37.78
43824;BME280;29470;53.550;9.926;2023-06-22T09:16:00;101536.53;;;28.82;40.54
43824;BME280;29470;53.550;9.926;2023-06-22T09:21:12;101526.91;;;29.17;40.01
43824;BME280;29470;53.550;9.926;2023-06-22T09:26:15;101524.41;;;29.48;40.07
43824;BME280;29470;53.550;9.926;2023-06-22T09:31:21;101523.56;;;29.60;39.24
43824;BME280;29470;53.550;9.926;2023-06-22T09:36:28;101510.13;;;29.32;39.26
43824;BME280;29470;53.550;9.926;2023-06-22T09:41:31;101511.81;;;29.11;39.49
43824;BME280;29470;53.550;9.926;2023-06-22T09:46:35;101504.94;;;29.75;38.69
43824;BME280;29470;53.550;9.926;2023-06-22T09:52:22;101507.56;;;29.61;38.41
43824;BME280;29470;53.550;9.926;2023-06-22T09:57:34;101503.19;;;30.05;37.41
43824;BME280;29470;53.550;9.926;2023-06-22T10:02:37;101496.94;;;30.43;37.70
43824;BME280;29470;53.550;9.926;2023-06-22T10:07:42;101500.53;;;30.04;38.53
43824;BME280;29470;53.550;9.926;2023-06-22T10:12:48;101482.75;;;30.23;38.81
43824;BME280;29470;53.550;9.926;2023-06-22T10:17:59;101485.31;;;29.47;38.82
43824;BME280;29470;53.550;9.926;2023-06-22T10:23:06;101476.50;;;29.97;38.74
43824;BME280;29470;53.550;9.926;2023-06-22T10:28:10;101486.13;;;29.29;39.52
43824;BME280;29470;53.550;9.926;2023-06-22T10:33:14;101479.13;;;29.60;39.73
43824;BME280;29470;53.550;9.926;2023-06-22T10:38:20;101469.97;;;28.82;40.85
43824;BME280;29470;53.550;9.926;2023-06-22T10:43:22;101461.09;;;28.81;41.29
43824;BME280;29470;53.550;9.926;2023-06-22T10:48:25;101452.38;;;29.24;40.40
43824;BME280;29470;53.550;9.926;2023-06-22T10:53:30;101451.63;;;29.69;40.40
43824;BME280;29470;53.550;9.926;2023-06-22T10:58:33;101442.72;;;29.78;40.31
43824;BME280;29470;53.550;9.926;2023-06-22T11:03:36;101440.09;;;30.04;39.78
43824;BME280;29470;53.550;9.926;2023-06-22T11:08:43;101440.03;;;30.45;38.99
43824;BME280;29470;53.550;9.926;2023-06-22T11:14:05;101438.25;;;30.42;39.83
43824;BME280;29470;53.550;9.926;2023-06-22T11:19:08;101432.88;;;30.65;39.03
43824;BME280;29470;53.550;9.926;2023-06-22T11:24:12;101429.34;;;30.41;39.57
43824;BME280;29470;53.550;9.926;2023-06-22T11:29:15;101426.75;;;30.18;39.96
43824;BME280;29470;53.550;9.926;2023-06-22T11:34:37;101422.13;;;30.87;39.55
43824;BME280;29470;53.550;9.926;2023-06-22T11:39:42;101414.84;;;31.14;38.77
43824;BME280;29470;53.550;9.926;2023-06-22T11:44:54;101407.00;;;32.14;36.94
43824;BME280;29470;53.550;9.926;2023-06-22T11:49:59;101407.72;;;31.18;38.31
43824;BME280;29470;53.550;9.926;2023-06-22T11:55:04;101405.22;;;30.90;38.79
43824;BME280;29470;53.550;9.926;2023-06-22T12:00:09;101405.31;;;30.54;39.79
43824;BME280;29470;53.550;9.926;2023-06-22T12:05:20;101398.28;;;29.89;40.81
43824;BME280;29470;53.550;9.926;2023-06-22T12:10:25;101383.22;;;29.77;40.60
43824;BME280;29470;53.550;9.926;2023-06-22T12:15:30;101378.47;;;30.93;39.39
43824;BME280;29470;53.550;9.926;2023-06-22T12:20:33;101375.22;;;29.71;41.46
43824;BME280;29470;53.550;9.926;2023-06-22T12:25:42;101365.44;;;29.89;41.19
43824;BME280;29470;53.550;9.926;2023-06-22T12:30:50;101363.56;;;30.39;40.64
43824;BME280;29470;53.550;9.926;2023-06-22T12:35:53;101364.44;;;30.36;40.63
43824;BME280;29470;53.550;9.926;2023-06-22T12:41:01;101352.63;;;30.99;39.54
43824;BME280;29470;53.550;9.926;2023-06-22T12:46:04;101355.53;;;30.37;40.12
43824;BME280;29470;53.550;9.926;2023-06-22T12:51:07;101347.13;;;31.27;38.66
43824;BME280;29470;53.550;9.926;2023-06-22T12:56:11;101342.09;;;30.76;39.70
43824;BME280;29470;53.550;9.926;2023-06-22T13:01:14;101340.06;;;31.12;39.48
43824;BME280;29470;53.550;9.926;2023-06-22T13:06:17;101339.59;;;31.78;38.48
43824;BME280;29470;53.550;9.926;2023-06-22T13:11:21;101339.16;;;31.20;39.79
43824;BME280;29470;53.550;9.926;2023-06-22T13:16:24;101327.69;;;31.00;39.57
43824;BME280;29470;53.550;9.926;2023-06-22T13:21:27;101334.13;;;30.53;40.69
43824;BME280;29470;53.550;9.926;2023-06-22T13:26:31;101332.94;;;31.18;39.81
43824;BME280;29470;53.550;9.926;2023-06-22T13:31:35;101329.56;;;30.86;39.86
43824;BME280;29470;53.550;9.926;2023-06-22T13:36:38;101325.41;;;30.09;41.47
43824;BME280;29470;53.550;9.926;2023-06-22T13:41:42;101327.13;;;30.21;41.03
43824;BME280;29470;53.550;9.926;2023-06-22T13:46:45;101312.03;;;30.24;41.50
43824;BME280;29470;53.550;9.926;2023-06-22T13:51:51;101299.53;;;30.28;40.97
43824;BME280;29470;53.550;9.926;2023-06-22T13:56:59;101296.13;;;31.55;38.86
43824;BME280;29470;53.550;9.926;2023-06-22T14:02:03;101287.38;;;31.38;39.53
43824;BME280;29470;53.550;9.926;2023-06-22T14:07:06;101283.81;;;31.34;39.32
43824;BME280;29470;53.550;9.926;2023-06-22T14:12:12;101276.72;;;31.32;39.96
43824;BME280;29470;53.550;9.926;2023-06-22T14:17:15;101284.31;;;30.63;40.62
43824;BME280;29470;53.550;9.926;2023-06-22T14:22:18;101281.91;;;29.71;42.79
43824;BME280;29470;53.550;9.926;2023-06-22T14:27:22;101273.03;;;29.72;42.82
43824;BME280;29470;53.550;9.926;2023-06-22T14:32:27;101264.09;;;30.01;42.49
43824;BME280;29470;53.550;9.926;2023-06-22T14:37:31;101259.69;;;29.18;43.68
43824;BME280;29470;53.550;9.926;2023-06-22T14:42:35;101262.38;;;28.99;44.48
43824;BME280;29470;53.550;9.926;2023-06-22T14:47:38;101253.50;;;28.89;44.66
43824;BME280;29470;53.550;9.926;2023-06-22T14:52:56;101248.16;;;28.85;44.80
43824;BME280;29470;53.550;9.926;2023-06-22T14:58:21;101242.78;;;28.66;45.47
43824;BME280;29470;53.550;9.926;2023-06-22T15:03:24;101250.69;;;28.38;46.17
43824;BME280;29470;53.550;9.926;2023-06-22T15:08:30;101249.84;;;28.59;45.77
43824;BME280;29470;53.550;9.926;2023-06-22T15:13:35;101239.13;;;28.33;45.80
43824;BME280;29470;53.550;9.926;2023-06-22T15:18:41;101230.41;;;28.91;45.01
43824;BME280;29470;53.550;9.926;2023-06-22T15:23:47;101215.94;;;27.99;46.56
43824;BME280;29470;53.550;9.926;2023-06-22T15:28:52;101218.81;;;28.64;45.82
43824;BME280;29470;53.550;9.926;2023-06-22T15:33:54;101209.06;;;28.70;45.67
43824;BME280;29470;53.550;9.926;2023-06-22T15:38:58;101195.53;;;27.97;46.94
43824;BME280;29470;53.550;9.926;2023-06-22T15:44:07;101190.38;;;28.45;46.24
43824;BME280;29470;53.550;9.926;2023-06-22T15:49:11;101181.63;;;28.81;45.64
43824;BME280;29470;53.550;9.926;2023-06-22T15:54:13;101170.84;;;28.33;46.77
43824;BME280;29470;53.550;9.926;2023-06-22T15:59:18;101155.69;;;28.01;47.45
43824;BME280;29470;53.550;9.926;2023-06-22T16:04:22;101161.16;;;28.60;46.43
43824;BME280;29470;53.550;9.926;2023-06-22T16:09:25;101147.72;;;28.09;48.23
43824;BME280;29470;53.550;9.926;2023-06-22T16:14:29;101150.97;;;27.47;48.75
43824;BME280;29470;53.550;9.926;2023-06-22T16:19:32;101140.72;;;28.41;47.35
43824;BME280;29470;53.550;9.926;2023-06-22T16:24:35;101138.75;;;27.77;48.56
43824;BME280;29470;53.550;9.926;2023-06-22T16:29:40;101146.75;;;27.81;48.56
43824;BME280;29470;53.550;9.926;2023-06-22T16:34:43;101136.00;;;27.57;48.67
43824;BME280;29470;53.550;9.926;2023-06-22T16:39:47;101133.31;;;27.51;49.01
43824;BME280;29470;53.550;9.926;2023-06-22T16:44:51;101121.88;;;27.71;48.56
43824;BME280;29470;53.550;9.926;2023-06-22T16:49:54;101128.13;;;27.79;47.83
43824;BME280;29470;53.550;9.926;2023-06-22T16:54:57;101118.44;;;27.93;47.21
43824;BME280;29470;53.550;9.926;2023-06-22T17:00:05;101121.72;;;27.43;47.32
43824;BME280;29470;53.550;9.926;2023-06-22T17:05:13;101105.75;;;27.33;47.77
43824;BME280;29470;53.550;9.926;2023-06-22T17:10:16;101113.88;;;27.58;47.57
43824;BME280;29470;53.550;9.926;2023-06-22T17:15:22;101110.88;;;27.04;48.79
43824;BME280;29470;53.550;9.926;2023-06-22T17:20:26;101100.72;;;26.52;49.46
43824;BME280;29470;53.550;9.926;2023-06-22T17:25:32;101094.00;;;26.01;50.42
43824;BME280;29470;53.550;9.926;2023-06-22T17:30:37;101095.31;;;26.42;49.22
43824;BME280;29470;53.550;9.926;2023-06-22T17:35:45;101086.59;;;26.56;49.22
43824;BME280;29470;53.550;9.926;2023-06-22T17:40:49;101081.94;;;26.28;49.99
43824;BME280;29470;53.550;9.926;2023-06-22T17:45:57;101080.81;;;26.08;50.13
43824;BME280;29470;53.550;9.926;2023-06-22T17:51:00;101089.66;;;26.08;49.60
43824;BME280;29470;53.550;9.926;2023-06-22T17:56:03;101101.53;;;25.67;50.26
43824;BME280;29470;53.550;9.926;2023-06-22T18:01:07;101092.84;;;25.78;50.05
43824;BME280;29470;53.550;9.926;2023-06-22T18:06:10;101090.41;;;25.96;48.87
43824;BME280;29470;53.550;9.926;2023-06-22T18:11:14;101104.84;;;26.20;47.85
43824;BME280;29470;53.550;9.926;2023-06-22T18:16:19;101096.69;;;26.05;47.25
43824;BME280;29470;53.550;9.926;2023-06-22T18:21:22;101094.97;;;25.40;48.02
43824;BME280;29470;53.550;9.926;2023-06-22T18:26:26;101095.94;;;25.44;48.16
43824;BME280;29470;53.550;9.926;2023-06-22T18:31:31;101087.09;;;25.43;47.73
43824;BME280;29470;53.550;9.926;2023-06-22T18:36:38;101082.81;;;25.50;47.31
43824;BME280;29470;53.550;9.926;2023-06-22T18:41:48;101074.94;;;25.56;47.31
43824;BME280;29470;53.550;9.926;2023-06-22T18:46:57;101063.78;;;25.16;47.71
43824;BME280;29470;53.550;9.926;2023-06-22T18:52:02;101038.28;;;25.21;47.31
43824;BME280;29470;53.550;9.926;2023-06-22T18:57:12;101030.94;;;25.03;46.98
43824;BME280;29470;53.550;9.926;2023-06-22T19:02:34;101005.13;;;24.85;47.15
43824;BME280;29470;53.550;9.926;2023-06-22T19:08:01;101025.06;;;24.63;47.01
43824;BME280;29470;53.550;9.926;2023-06-22T19:13:27;101012.88;;;24.74;46.23
43824;BME280;29470;53.550;9.926;2023-06-22T19:18:34;101013.28;;;24.44;47.10
43824;BME280;29470;53.550;9.926;2023-06-22T19:23:38;101034.03;;;24.74;46.49
43824;BME280;29470;53.550;9.926;2023-06-22T19:28:45;101038.38;;;24.70;45.93
43824;BME280;29470;53.550;9.926;2023-06-22T19:33:52;101051.09;;;24.39;45.29
43824;BME280;29470;53.550;9.926;2023-06-22T19:38:57;101046.88;;;24.51;44.46
43824;BME280;29470;53.550;9.926;2023-06-22T19:44:00;101048.66;;;24.50;43.58
43824;BME280;29470;53.550;9.926;2023-06-22T19:49:09;101044.38;;;24.60;42.91
43824;BME280;29470;53.550;9.926;2023-06-22T19:54:12;101051.19;;;24.46;42.17
43824;BME280;29470;53.550;9.926;2023-06-22T19:59:22;101047.47;;;24.34;42.28
43824;BME280;29470;53.550;9.926;2023-06-22T20:04:27;101058.84;;;24.29;43.14
43824;BME280;29470;53.550;9.926;2023-06-22T20:09:29;101052.66;;;24.26;44.11
43824;BME280;29470;53.550;9.926;2023-06-22T20:14:34;101061.69;;;23.93;44.41
43824;BME280;29470;53.550;9.926;2023-06-22T20:19:38;101066.47;;;23.68;45.31
43824;BME280;29470;53.550;9.926;2023-06-22T20:24:43;101076.53;;;23.44;47.27
43824;BME280;29470;53.550;9.926;2023-06-22T20:29:48;101079.34;;;23.51;48.74
43824;BME280;29470;53.550;9.926;2023-06-22T20:34:52;101085.38;;;23.46;50.20
43824;BME280;29470;53.550;9.926;2023-06-22T20:39:55;101093.47;;;23.17;52.00
43824;BME280;29470;53.550;9.926;2023-06-22T20:44:58;101099.31;;;22.65;60.78
43824;BME280;29470;53.550;9.926;2023-06-22T20:50:03;101100.84;;;21.91;68.37
43824;BME280;29470;53.550;9.926;2023-06-22T20:55:06;101105.91;;;21.56;74.75
43824;BME280;29470;53.550;9.926;2023-06-22T21:00:10;101103.91;;;19.43;100.00
43824;BME280;29470;53.550;9.926;2023-06-22T21:05:15;101075.03;;;31.62;100.00
43824;BME280;29470;53.550;9.926;2023-06-22T21:10:18;101153.47;;;18.13;100.00
43824;BME280;29470;53.550;9.926;2023-06-22T21:15:21;101137.63;;;17.52;100.00
43824;BME280;29470;53.550;9.926;2023-06-22T21:20:25;101120.66;;;17.81;100.00
43824;BME280;29470;53.550;9.926;2023-06-22T21:25:28;101058.97;;;17.67;100.00
43824;BME280;29470;53.550;9.926;2023-06-22T21:30:31;101037.00;;;18.22;100.00
43824;BME280;29470;53.550;9.926;2023-06-22T21:35:35;100996.03;;;20.61;100.00
43824;BME280;29470;53.550;9.926;2023-06-22T21:40:38;101007.41;;;19.58;100.00
43824;BME280;29470;53.550;9.926;2023-06-22T21:45:41;101018.41;;;19.72;100.00
43824;BME280;29470;53.550;9.926;2023-06-22T21:50:45;101006.09;;;19.94;100.00
43824;BME280;29470;53.550;9.926;2023-06-22T21:55:48;101016.00;;;19.79;100.00
43824;BME280;29470;53.550;9.926;2023-06-22T22:00:51;101021.78;;;20.72;100.00
43824;BME280;29470;53.550;9.926;2023-06-22T22:05:57;101011.28;;;20.99;100.00
43824;BME280;29470;53.550;9.926;2023-06-22T22:11:00;101019.06;;;21.25;100.00
43824;BME280;29470;53.550;9.926;2023-06-22T22:16:04;101029.88;;;21.06;100.00
43824;BME280;29470;53.550;9.926;2023-06-22T22:21:08;101049.19;;;21.35;100.00
43824;BME280;29470;53.550;9.926;2023-06-22T22:26:11;101052.19;;;21.18;100.00
43824;BME280;29470;53.550;9.926;2023-06-22T22:31:14;101044.19;;;21.15;100.00
43824;BME280;29470;53.550;9.926;2023-06-22T22:36:19;101055.69;;;20.90;100.00
43824;BME280;29470;53.550;9.926;2023-06-22T22:41:21;101055.53;;;20.85;100.00
43824;BME280;29470;53.550;9.926;2023-06-22T22:46:24;101065.69;;;20.74;100.00
43824;BME280;29470;53.550;9.926;2023-06-22T22:51:28;101070.94;;;21.60;100.00
43824;BME280;29470;53.550;9.926;2023-06-22T22:56:33;101081.16;;;20.91;100.00
43824;BME280;29470;53.550;9.926;2023-06-22T23:01:36;101133.75;;;20.16;100.00
43824;BME280;29470;53.550;9.926;2023-06-22T23:06:40;101119.50;;;25.25;100.00
43824;BME280;29470;53.550;9.926;2023-06-22T23:11:43;101208.69;;;21.60;100.00
43824;BME280;29470;53.550;9.926;2023-06-22T23:16:46;101126.41;;;21.37;100.00
43824;BME280;29470;53.550;9.926;2023-06-22T23:21:51;101075.53;;;27.10;78.48
43824;BME280;29470;53.550;9.926;2023-06-22T23:26:53;101180.63;;;26.06;100.00
43824;BME280;29470;53.550;9.926;2023-06-22T23:31:58;101140.66;;;20.89;100.00
43824;BME280;29470;53.550;9.926;2023-06-22T23:37:02;101189.94;;;21.77;100.00
43824;BME280;29470;53.550;9.926;2023-06-22T23:42:06;101146.81;;;22.02;100.00
43824;BME280;29470;53.550;9.926;2023-06-22T23:47:11;101207.56;;;21.25;100.00
43824;BME280;29470;53.550;9.926;2023-06-22T23:52:16;56682.53;;;-147.41;100.00
43824;BME280;29470;53.550;9.926;2023-06-22T23:57:19;101299.53;;;23.60;100.00
